»·PEaware :: N224LW KSAC-KTRK

N224LW :: KSAC-KTRK

FLIGHT INFORMATION

Flight Status: Arrived
Operator: Privately registered:
United States
More flights under this callsign
Pilot: Rod T. (6553)
Aircraft: CIRRUS SR-22 TURBO
(S22T)
More flights by this aircraft type
Origin: KSAC Sacramento Executive
United States
Destination: KTRK Truckee-Tahoe
United States
More flights between these airports :: More routes between these airports
Route: FOLLY V6 SWR
File this flight plan on PilotEdge
Remarks:
Altitude:
(Current/Filed)
11,000ft
Speed:
(Current/Filed)
180kts
Departed: 15-Apr-18 08:55 PM
Arrived: 15-Apr-18 10:26 PM
Distance/Time
Traveled:
80nm/1:31
Distance/Time
To Go:
Arrived

Flight Plot

Page will automatically refresh every two minutes.

Flight plan parsing failed; only flown route is shown


Map Options




Map Legend


Flown Route
Filed Route
Departure Airport
Arrival Airport
Navaid (VOR, NDB)
Fix

Horizontal Profiles

Position Reports

Time Latitude Longitude Heading Altitude Ground
Speed
15-Apr-18 20:45 38.514780 -121.498404 226 25ft 0kts
15-Apr-18 20:46 38.514780 -121.498404 226 25ft 0kts
15-Apr-18 20:47 38.514561 -121.498168 116 25ft 0kts
15-Apr-18 20:48 38.513573 -121.495715 91 25ft 14kts
15-Apr-18 20:49 38.518036 -121.491747 33 25ft 24kts
15-Apr-18 20:50 38.519175 -121.490406 100 25ft 0kts
15-Apr-18 20:51 38.519175 -121.490406 100 25ft 0kts
15-Apr-18 20:52 38.519175 -121.490406 100 25ft 0kts
15-Apr-18 20:53 38.519058 -121.489691 111 25ft 16kts
15-Apr-18 20:54 38.502179 -121.499458 160 723ft 103kts
15-Apr-18 20:55 38.492895 -121.460717 102 1978ft 128kts
15-Apr-18 20:56 38.484855 -121.406397 101 2128ft 163kts
15-Apr-18 20:57 38.499072 -121.357965 36 3530ft 148kts
15-Apr-18 20:58 38.528872 -121.319996 40 4778ft 153kts
15-Apr-18 20:59 38.559744 -121.282241 39 6068ft 156kts
15-Apr-18 21:00 38.591931 -121.243774 39 7289ft 162kts
15-Apr-18 21:01 38.625453 -121.203955 40 8485ft 168kts
15-Apr-18 21:02 38.660154 -121.162665 41 9647ft 174kts
15-Apr-18 21:03 38.695560 -121.118708 52 10767ft 182kts
15-Apr-18 21:04 38.728825 -121.061936 54 10980ft 215kts
15-Apr-18 21:05 38.765139 -120.998988 54 10987ft 223kts
15-Apr-18 21:06 38.801934 -120.935088 54 11014ft 224kts
15-Apr-18 21:07 38.839090 -120.870420 54 10988ft 225kts
15-Apr-18 21:08 38.876153 -120.805780 54 10989ft 225kts
15-Apr-18 21:09 38.913564 -120.740640 54 10932ft 222kts
15-Apr-18 21:10 38.948596 -120.679446 54 10921ft 203kts
15-Apr-18 21:11 38.982172 -120.620882 55 10923ft 202kts
15-Apr-18 21:12 39.014977 -120.563469 47 10915ft 198kts
15-Apr-18 21:13 39.062058 -120.526908 35 10923ft 198kts
15-Apr-18 21:14 39.107249 -120.486559 36 10922ft 198kts
15-Apr-18 21:15 39.152198 -120.446049 36 10921ft 198kts
15-Apr-18 21:16 39.197216 -120.405404 36 10922ft 198kts
15-Apr-18 21:17 39.242173 -120.363839 34 10896ft 199kts
15-Apr-18 21:18 39.287202 -120.322844 34 10936ft 196kts
15-Apr-18 21:19 39.331894 -120.282290 34 10996ft 197kts
15-Apr-18 21:20 39.377068 -120.241272 34 10995ft 199kts
15-Apr-18 21:21 39.422095 -120.199869 33 10972ft 199kts
15-Apr-18 21:22 39.466401 -120.159044 32 10968ft 194kts
15-Apr-18 21:23 39.510449 -120.118805 32 10969ft 193kts
15-Apr-18 21:24 39.554203 -120.078789 32 10969ft 193kts
15-Apr-18 21:25 39.596844 -120.039678 32 10967ft 182kts
15-Apr-18 21:26 39.640955 -120.014896 11 10969ft 172kts
15-Apr-18 21:27 39.687136 -119.998665 12 10969ft 172kts
15-Apr-18 21:28 39.733425 -119.984710 348 10967ft 168kts
15-Apr-18 21:29 39.732679 -120.027286 193 10970ft 175kts
15-Apr-18 21:30 39.687055 -120.002786 174 10961ft 179kts
15-Apr-18 21:31 39.637216 -120.016057 197 10668ft 184kts
15-Apr-18 21:32 39.588583 -120.032993 197 10442ft 181kts
15-Apr-18 21:33 39.548294 -120.047086 197 10026ft 180kts
15-Apr-18 21:34 39.500213 -120.063486 196 9523ft 174kts
15-Apr-18 21:35 39.458894 -120.078930 199 9077ft 141kts
15-Apr-18 21:36 39.422270 -120.092023 199 8209ft 134kts
15-Apr-18 21:37 39.382915 -120.106453 197 7286ft 126kts
15-Apr-18 21:38 39.352545 -120.117405 196 6582ft 107kts
15-Apr-18 21:39 39.327572 -120.126328 196 6066ft 128kts
15-Apr-18 21:40 39.292888 -120.143061 240 7055ft 135kts
15-Apr-18 21:41 39.315451 -120.159509 24 8355ft 137kts
15-Apr-18 21:42 39.351327 -120.141509 18 9571ft 140kts
15-Apr-18 21:43 39.390500 -120.119424 23 10002ft 173kts
15-Apr-18 21:44 39.435490 -120.092372 23 9969ft 179kts
15-Apr-18 21:45 39.475704 -120.055476 43 9969ft 180kts
15-Apr-18 21:46 39.510887 -120.009340 43 9969ft 180kts
15-Apr-18 21:47 39.546176 -119.963035 43 9969ft 180kts
15-Apr-18 21:48 39.584539 -119.926860 13 9967ft 167kts
15-Apr-18 21:49 39.628991 -119.910383 13 9969ft 166kts
15-Apr-18 21:50 39.670553 -119.882368 43 9509ft 184kts
15-Apr-18 21:51 39.707176 -119.834338 43 8561ft 189kts
15-Apr-18 21:52 39.702740 -119.775365 152 7517ft 181kts
15-Apr-18 21:53 39.659543 -119.764949 189 7207ft 157kts
15-Apr-18 21:54 39.615899 -119.768636 180 6610ft 158kts
15-Apr-18 21:55 39.572938 -119.768546 179 5674ft 150kts
15-Apr-18 21:56 39.537932 -119.769026 182 5080ft 113kts
15-Apr-18 21:57 39.511145 -119.769209 183 4450ft 85kts
15-Apr-18 21:58 39.502857 -119.767928 94 4417ft 0kts
15-Apr-18 21:59 39.501739 -119.765219 16 4417ft 12kts
15-Apr-18 22:00 39.501611 -119.764400 181 4417ft 0kts
15-Apr-18 22:25 39.317744 -120.140604 208 5901ft 0kts
15-Apr-18 22:26 39.317744 -120.140604 208 5901ft 0kts
15-Apr-18 22:27 39.317744 -120.140604 208 5901ft 0kts

Navigation Log

Ident Type
Flight plan parsing failed, navigation log unavailable